Shabla, Bulgaria
Current Conditions -  °F | °C
As of 7:00 AM on Thursday 29 Jan 2015 (Local Time) from LBWN Reporting Station
Scattered Clouds Scattered Clouds  
Wind Chill: 37°   Ceiling: Unl
Heat Index: 37°   Visibility: 4mi
Dew Point: 36°   Wind: 3mph
Humidity: 93%   Direction: 280°W
Pressure: 29.85"   Gusts: NA
Location:  43.54°N, 28.54°E
Report Text: LBWN 290400Z 28003KT 7000 SCT010 03/02 Q1011 R99/29//95 NOSIG
Loading
Personal Weather Stations






























Interactive Weather Map New forecast layout! Learn more

10-Day Weather Forecast

Advertisements
Track Severe Weather on mobile